sensor_id;sensor_type;location;lat;lon;timestamp;P1;durP1;ratioP1;P2;durP2;ratioP2
31760;SDS011;18335;51.486;7.562;2023-07-31T00:00:42;6.68;;;2.47;;
31760;SDS011;18335;51.486;7.562;2023-07-31T00:03:09;6.70;;;2.50;;
31760;SDS011;18335;51.486;7.562;2023-07-31T00:05:36;8.30;;;2.97;;
31760;SDS011;18335;51.486;7.562;2023-07-31T00:08:03;7.18;;;2.33;;
31760;SDS011;18335;51.486;7.562;2023-07-31T00:10:30;8.13;;;2.72;;
31760;SDS011;18335;51.486;7.562;2023-07-31T00:12:58;7.72;;;2.53;;
31760;SDS011;18335;51.486;7.562;2023-07-31T00:15:24;7.15;;;2.63;;
31760;SDS011;18335;51.486;7.562;2023-07-31T00:17:51;11.85;;;2.63;;
31760;SDS011;18335;51.486;7.562;2023-07-31T00:20:18;7.10;;;2.88;;
31760;SDS011;18335;51.486;7.562;2023-07-31T00:22:45;10.55;;;2.85;;
31760;SDS011;18335;51.486;7.562;2023-07-31T00:25:11;6.68;;;2.45;;
31760;SDS011;18335;51.486;7.562;2023-07-31T00:27:38;6.60;;;2.50;;
31760;SDS011;18335;51.486;7.562;2023-07-31T00:30:11;9.82;;;2.80;;
31760;SDS011;18335;51.486;7.562;2023-07-31T00:32:38;8.93;;;3.00;;
31760;SDS011;18335;51.486;7.562;2023-07-31T00:35:05;5.75;;;2.15;;
31760;SDS011;18335;51.486;7.562;2023-07-31T00:37:32;7.65;;;2.83;;
31760;SDS011;18335;51.486;7.562;2023-07-31T00:39:59;5.75;;;2.15;;
31760;SDS011;18335;51.486;7.562;2023-07-31T00:42:29;8.07;;;2.40;;
31760;SDS011;18335;51.486;7.562;2023-07-31T00:44:55;7.35;;;2.75;;
31760;SDS011;18335;51.486;7.562;2023-07-31T00:47:24;8.98;;;3.13;;
31760;SDS011;18335;51.486;7.562;2023-07-31T00:49:52;8.48;;;2.90;;
31760;SDS011;18335;51.486;7.562;2023-07-31T00:52:18;11.75;;;3.13;;
31760;SDS011;18335;51.486;7.562;2023-07-31T00:54:46;9.70;;;3.03;;
31760;SDS011;18335;51.486;7.562;2023-07-31T00:57:13;8.70;;;2.85;;
31760;SDS011;18335;51.486;7.562;2023-07-31T00:59:40;8.38;;;3.25;;
31760;SDS011;18335;51.486;7.562;2023-07-31T01:02:07;6.95;;;2.60;;
31760;SDS011;18335;51.486;7.562;2023-07-31T01:04:35;9.20;;;2.78;;
31760;SDS011;18335;51.486;7.562;2023-07-31T01:07:04;9.27;;;2.58;;
31760;SDS011;18335;51.486;7.562;2023-07-31T01:09:39;8.23;;;3.08;;
31760;SDS011;18335;51.486;7.562;2023-07-31T01:12:09;11.23;;;4.32;;
31760;SDS011;18335;51.486;7.562;2023-07-31T01:14:40;14.20;;;3.80;;
31760;SDS011;18335;51.486;7.562;2023-07-31T01:17:07;10.82;;;3.65;;
31760;SDS011;18335;51.486;7.562;2023-07-31T01:19:35;14.00;;;4.18;;
31760;SDS011;18335;51.486;7.562;2023-07-31T01:22:15;14.18;;;4.30;;
31760;SDS011;18335;51.486;7.562;2023-07-31T01:24:54;14.80;;;3.63;;
31760;SDS011;18335;51.486;7.562;2023-07-31T01:27:28;13.80;;;4.22;;
31760;SDS011;18335;51.486;7.562;2023-07-31T01:29:59;16.02;;;4.30;;
31760;SDS011;18335;51.486;7.562;2023-07-31T01:32:35;12.15;;;5.00;;
31760;SDS011;18335;51.486;7.562;2023-07-31T01:35:05;12.90;;;4.25;;
31760;SDS011;18335;51.486;7.562;2023-07-31T01:37:33;13.77;;;4.28;;
31760;SDS011;18335;51.486;7.562;2023-07-31T01:40:00;14.32;;;4.85;;
31760;SDS011;18335;51.486;7.562;2023-07-31T01:42:29;20.42;;;4.70;;
31760;SDS011;18335;51.486;7.562;2023-07-31T01:44:55;16.75;;;4.38;;
31760;SDS011;18335;51.486;7.562;2023-07-31T01:47:22;11.23;;;4.00;;
31760;SDS011;18335;51.486;7.562;2023-07-31T01:49:49;12.27;;;4.63;;
31760;SDS011;18335;51.486;7.562;2023-07-31T01:52:16;14.68;;;4.57;;
31760;SDS011;18335;51.486;7.562;2023-07-31T01:54:43;11.75;;;4.45;;
31760;SDS011;18335;51.486;7.562;2023-07-31T01:57:10;13.77;;;4.18;;
31760;SDS011;18335;51.486;7.562;2023-07-31T01:59:38;18.88;;;4.13;;
31760;SDS011;18335;51.486;7.562;2023-07-31T02:02:05;14.63;;;3.30;;
31760;SDS011;18335;51.486;7.562;2023-07-31T02:04:32;12.15;;;3.75;;
31760;SDS011;18335;51.486;7.562;2023-07-31T02:06:59;10.55;;;3.70;;
31760;SDS011;18335;51.486;7.562;2023-07-31T02:09:26;11.20;;;3.25;;
31760;SDS011;18335;51.486;7.562;2023-07-31T02:11:52;14.40;;;3.92;;
31760;SDS011;18335;51.486;7.562;2023-07-31T02:14:19;11.75;;;3.47;;
31760;SDS011;18335;51.486;7.562;2023-07-31T02:16:47;12.88;;;4.18;;
31760;SDS011;18335;51.486;7.562;2023-07-31T02:19:14;12.32;;;3.60;;
31760;SDS011;18335;51.486;7.562;2023-07-31T02:21:41;12.40;;;3.65;;
31760;SDS011;18335;51.486;7.562;2023-07-31T02:24:07;11.23;;;3.53;;
31760;SDS011;18335;51.486;7.562;2023-07-31T02:26:34;9.48;;;3.80;;
31760;SDS011;18335;51.486;7.562;2023-07-31T02:29:02;13.77;;;5.10;;
31760;SDS011;18335;51.486;7.562;2023-07-31T02:31:29;14.13;;;4.18;;
31760;SDS011;18335;51.486;7.562;2023-07-31T02:33:57;16.83;;;4.32;;
31760;SDS011;18335;51.486;7.562;2023-07-31T02:36:23;9.55;;;3.65;;
31760;SDS011;18335;51.486;7.562;2023-07-31T02:38:50;10.63;;;3.70;;
31760;SDS011;18335;51.486;7.562;2023-07-31T02:41:17;10.13;;;3.15;;
31760;SDS011;18335;51.486;7.562;2023-07-31T02:43:44;9.98;;;3.22;;
31760;SDS011;18335;51.486;7.562;2023-07-31T02:46:10;13.20;;;4.22;;
31760;SDS011;18335;51.486;7.562;2023-07-31T02:48:37;15.75;;;3.92;;
31760;SDS011;18335;51.486;7.562;2023-07-31T02:51:05;12.88;;;3.55;;
31760;SDS011;18335;51.486;7.562;2023-07-31T02:53:32;11.98;;;3.75;;
31760;SDS011;18335;51.486;7.562;2023-07-31T02:55:59;10.77;;;3.50;;
31760;SDS011;18335;51.486;7.562;2023-07-31T02:58:25;10.75;;;3.63;;
31760;SDS011;18335;51.486;7.562;2023-07-31T03:00:52;16.15;;;6.50;;
31760;SDS011;18335;51.486;7.562;2023-07-31T03:03:19;10.82;;;4.00;;
31760;SDS011;18335;51.486;7.562;2023-07-31T03:05:45;14.00;;;4.55;;
31760;SDS011;18335;51.486;7.562;2023-07-31T03:08:13;11.18;;;4.22;;
31760;SDS011;18335;51.486;7.562;2023-07-31T03:10:40;12.18;;;3.83;;
31760;SDS011;18335;51.486;7.562;2023-07-31T03:13:07;16.50;;;4.60;;
31760;SDS011;18335;51.486;7.562;2023-07-31T03:15:34;12.38;;;4.30;;
31760;SDS011;18335;51.486;7.562;2023-07-31T03:18:00;15.75;;;3.83;;
31760;SDS011;18335;51.486;7.562;2023-07-31T03:20:27;12.73;;;3.95;;
31760;SDS011;18335;51.486;7.562;2023-07-31T03:22:54;14.32;;;4.38;;
31760;SDS011;18335;51.486;7.562;2023-07-31T03:25:22;12.40;;;5.25;;
31760;SDS011;18335;51.486;7.562;2023-07-31T03:27:50;19.55;;;4.45;;
31760;SDS011;18335;51.486;7.562;2023-07-31T03:30:16;10.70;;;3.78;;
31760;SDS011;18335;51.486;7.562;2023-07-31T03:32:43;15.02;;;3.88;;
31760;SDS011;18335;51.486;7.562;2023-07-31T03:35:10;14.15;;;4.38;;
31760;SDS011;18335;51.486;7.562;2023-07-31T03:37:36;16.33;;;4.05;;
31760;SDS011;18335;51.486;7.562;2023-07-31T03:40:03;13.63;;;5.05;;
31760;SDS011;18335;51.486;7.562;2023-07-31T03:42:32;13.05;;;3.67;;
31760;SDS011;18335;51.486;7.562;2023-07-31T03:44:59;14.55;;;3.85;;
31760;SDS011;18335;51.486;7.562;2023-07-31T03:47:26;16.42;;;5.15;;
31760;SDS011;18335;51.486;7.562;2023-07-31T03:49:53;14.50;;;4.68;;
31760;SDS011;18335;51.486;7.562;2023-07-31T03:52:20;15.35;;;4.07;;
31760;SDS011;18335;51.486;7.562;2023-07-31T03:54:47;13.45;;;3.65;;
31760;SDS011;18335;51.486;7.562;2023-07-31T03:57:14;8.18;;;3.50;;
31760;SDS011;18335;51.486;7.562;2023-07-31T03:59:42;10.02;;;3.22;;
31760;SDS011;18335;51.486;7.562;2023-07-31T04:02:09;11.52;;;3.85;;
31760;SDS011;18335;51.486;7.562;2023-07-31T04:04:36;12.82;;;4.03;;
31760;SDS011;18335;51.486;7.562;2023-07-31T04:07:02;9.93;;;3.65;;
31760;SDS011;18335;51.486;7.562;2023-07-31T04:09:29;12.73;;;4.28;;
31760;SDS011;18335;51.486;7.562;2023-07-31T04:11:56;13.48;;;3.78;;
31760;SDS011;18335;51.486;7.562;2023-07-31T04:14:23;12.18;;;3.55;;
31760;SDS011;18335;51.486;7.562;2023-07-31T04:16:51;10.35;;;3.85;;
31760;SDS011;18335;51.486;7.562;2023-07-31T04:19:18;12.13;;;3.33;;
31760;SDS011;18335;51.486;7.562;2023-07-31T04:21:44;14.02;;;4.20;;
31760;SDS011;18335;51.486;7.562;2023-07-31T04:24:11;19.15;;;4.60;;
31760;SDS011;18335;51.486;7.562;2023-07-31T04:26:38;11.88;;;4.63;;
31760;SDS011;18335;51.486;7.562;2023-07-31T04:29:04;15.38;;;3.95;;
31760;SDS011;18335;51.486;7.562;2023-07-31T04:31:31;11.10;;;3.90;;
31760;SDS011;18335;51.486;7.562;2023-07-31T04:33:59;11.32;;;4.18;;
31760;SDS011;18335;51.486;7.562;2023-07-31T04:36:26;18.08;;;4.22;;
31760;SDS011;18335;51.486;7.562;2023-07-31T04:38:52;10.15;;;3.55;;
31760;SDS011;18335;51.486;7.562;2023-07-31T04:41:19;14.07;;;3.90;;
31760;SDS011;18335;51.486;7.562;2023-07-31T04:43:46;11.30;;;3.55;;
31760;SDS011;18335;51.486;7.562;2023-07-31T04:46:13;10.52;;;3.75;;
31760;SDS011;18335;51.486;7.562;2023-07-31T04:48:40;9.35;;;3.38;;
31760;SDS011;18335;51.486;7.562;2023-07-31T04:51:08;14.27;;;4.43;;
31760;SDS011;18335;51.486;7.562;2023-07-31T04:53:35;14.27;;;4.50;;
31760;SDS011;18335;51.486;7.562;2023-07-31T04:56:02;12.45;;;3.63;;
31760;SDS011;18335;51.486;7.562;2023-07-31T04:58:29;12.27;;;3.67;;
31760;SDS011;18335;51.486;7.562;2023-07-31T05:00:56;16.75;;;5.68;;
31760;SDS011;18335;51.486;7.562;2023-07-31T05:03:23;11.68;;;3.55;;
31760;SDS011;18335;51.486;7.562;2023-07-31T05:05:50;17.80;;;4.53;;
31760;SDS011;18335;51.486;7.562;2023-07-31T05:08:19;10.50;;;3.78;;
31760;SDS011;18335;51.486;7.562;2023-07-31T05:10:46;14.10;;;4.35;;
31760;SDS011;18335;51.486;7.562;2023-07-31T05:13:12;10.52;;;3.80;;
31760;SDS011;18335;51.486;7.562;2023-07-31T05:15:40;13.68;;;4.15;;
31760;SDS011;18335;51.486;7.562;2023-07-31T05:18:07;14.63;;;4.40;;
31760;SDS011;18335;51.486;7.562;2023-07-31T05:20:34;13.73;;;4.03;;
31760;SDS011;18335;51.486;7.562;2023-07-31T05:23:01;10.48;;;3.70;;
31760;SDS011;18335;51.486;7.562;2023-07-31T05:25:29;11.50;;;3.88;;
31760;SDS011;18335;51.486;7.562;2023-07-31T05:27:56;11.30;;;4.50;;
31760;SDS011;18335;51.486;7.562;2023-07-31T05:30:23;13.60;;;3.97;;
31760;SDS011;18335;51.486;7.562;2023-07-31T05:32:50;9.57;;;3.85;;
31760;SDS011;18335;51.486;7.562;2023-07-31T05:35:16;17.08;;;4.63;;
31760;SDS011;18335;51.486;7.562;2023-07-31T05:37:43;10.95;;;3.55;;
31760;SDS011;18335;51.486;7.562;2023-07-31T05:40:10;11.68;;;4.78;;
31760;SDS011;18335;51.486;7.562;2023-07-31T05:42:39;9.98;;;3.83;;
31760;SDS011;18335;51.486;7.562;2023-07-31T05:45:06;11.75;;;4.53;;
31760;SDS011;18335;51.486;7.562;2023-07-31T05:47:33;10.13;;;4.35;;
31760;SDS011;18335;51.486;7.562;2023-07-31T05:50:00;11.57;;;4.45;;
31760;SDS011;18335;51.486;7.562;2023-07-31T05:52:26;14.90;;;3.78;;
31760;SDS011;18335;51.486;7.562;2023-07-31T05:54:54;11.77;;;4.35;;
31760;SDS011;18335;51.486;7.562;2023-07-31T05:57:21;10.75;;;4.25;;
31760;SDS011;18335;51.486;7.562;2023-07-31T05:59:49;9.52;;;4.70;;
31760;SDS011;18335;51.486;7.562;2023-07-31T06:02:15;15.73;;;4.45;;
31760;SDS011;18335;51.486;7.562;2023-07-31T06:04:42;14.27;;;4.65;;
31760;SDS011;18335;51.486;7.562;2023-07-31T06:07:09;12.23;;;4.82;;
31760;SDS011;18335;51.486;7.562;2023-07-31T06:09:36;13.38;;;4.63;;
31760;SDS011;18335;51.486;7.562;2023-07-31T06:12:02;11.07;;;4.30;;
31760;SDS011;18335;51.486;7.562;2023-07-31T06:14:30;15.65;;;4.75;;
31760;SDS011;18335;51.486;7.562;2023-07-31T06:16:58;15.80;;;5.25;;
31760;SDS011;18335;51.486;7.562;2023-07-31T06:19:24;13.45;;;4.07;;
31760;SDS011;18335;51.486;7.562;2023-07-31T06:21:51;16.75;;;6.18;;
31760;SDS011;18335;51.486;7.562;2023-07-31T06:24:18;12.95;;;5.63;;
31760;SDS011;18335;51.486;7.562;2023-07-31T06:26:45;11.75;;;4.78;;
31760;SDS011;18335;51.486;7.562;2023-07-31T06:29:12;15.50;;;4.35;;
31760;SDS011;18335;51.486;7.562;2023-07-31T06:31:40;13.90;;;5.00;;
31760;SDS011;18335;51.486;7.562;2023-07-31T06:34:08;12.73;;;4.82;;
31760;SDS011;18335;51.486;7.562;2023-07-31T06:36:35;11.80;;;5.57;;
31760;SDS011;18335;51.486;7.562;2023-07-31T06:39:02;11.27;;;4.63;;
31760;SDS011;18335;51.486;7.562;2023-07-31T06:41:29;14.85;;;5.15;;
31760;SDS011;18335;51.486;7.562;2023-07-31T06:43:55;10.05;;;4.20;;
31760;SDS011;18335;51.486;7.562;2023-07-31T06:46:22;12.25;;;4.97;;
31760;SDS011;18335;51.486;7.562;2023-07-31T06:48:49;14.32;;;4.97;;
31760;SDS011;18335;51.486;7.562;2023-07-31T06:51:17;12.52;;;5.13;;
31760;SDS011;18335;51.486;7.562;2023-07-31T06:53:43;10.32;;;4.97;;
31760;SDS011;18335;51.486;7.562;2023-07-31T06:56:10;11.55;;;4.82;;
31760;SDS011;18335;51.486;7.562;2023-07-31T06:58:37;12.10;;;6.15;;
31760;SDS011;18335;51.486;7.562;2023-07-31T07:01:04;9.57;;;4.45;;
31760;SDS011;18335;51.486;7.562;2023-07-31T07:03:31;11.00;;;4.72;;
31760;SDS011;18335;51.486;7.562;2023-07-31T07:05:58;11.57;;;4.97;;
31760;SDS011;18335;51.486;7.562;2023-07-31T07:08:27;11.25;;;4.53;;
31760;SDS011;18335;51.486;7.562;2023-07-31T07:10:53;12.45;;;4.78;;
31760;SDS011;18335;51.486;7.562;2023-07-31T07:13:20;12.00;;;4.30;;
31760;SDS011;18335;51.486;7.562;2023-07-31T07:15:47;11.15;;;4.22;;
31760;SDS011;18335;51.486;7.562;2023-07-31T07:18:14;11.30;;;4.30;;
31760;SDS011;18335;51.486;7.562;2023-07-31T07:20:45;13.20;;;4.15;;
31760;SDS011;18335;51.486;7.562;2023-07-31T07:23:13;13.60;;;5.20;;
31760;SDS011;18335;51.486;7.562;2023-07-31T07:25:41;11.75;;;3.95;;
31760;SDS011;18335;51.486;7.562;2023-07-31T07:28:08;12.10;;;3.88;;
31760;SDS011;18335;51.486;7.562;2023-07-31T07:30:35;11.35;;;3.90;;
31760;SDS011;18335;51.486;7.562;2023-07-31T07:33:02;9.90;;;4.22;;
31760;SDS011;18335;51.486;7.562;2023-07-31T07:35:29;10.27;;;3.88;;
31760;SDS011;18335;51.486;7.562;2023-07-31T07:37:56;12.07;;;4.20;;
31760;SDS011;18335;51.486;7.562;2023-07-31T07:40:23;12.23;;;3.95;;
31760;SDS011;18335;51.486;7.562;2023-07-31T07:42:51;9.10;;;3.60;;
31760;SDS011;18335;51.486;7.562;2023-07-31T07:45:18;10.52;;;4.15;;
31760;SDS011;18335;51.486;7.562;2023-07-31T07:47:45;11.75;;;4.30;;
31760;SDS011;18335;51.486;7.562;2023-07-31T07:50:11;10.80;;;3.50;;
31760;SDS011;18335;51.486;7.562;2023-07-31T07:52:38;11.70;;;4.32;;
31760;SDS011;18335;51.486;7.562;2023-07-31T07:55:05;7.72;;;3.47;;
31760;SDS011;18335;51.486;7.562;2023-07-31T07:57:32;11.05;;;3.63;;
31760;SDS011;18335;51.486;7.562;2023-07-31T08:00:00;12.68;;;4.03;;
31760;SDS011;18335;51.486;7.562;2023-07-31T08:02:39;11.85;;;4.10;;
31760;SDS011;18335;51.486;7.562;2023-07-31T08:05:06;9.85;;;3.90;;
31760;SDS011;18335;51.486;7.562;2023-07-31T08:07:33;7.38;;;3.53;;
31760;SDS011;18335;51.486;7.562;2023-07-31T08:10:00;11.20;;;3.97;;
31760;SDS011;18335;51.486;7.562;2023-07-31T08:12:27;12.82;;;4.05;;
31760;SDS011;18335;51.486;7.562;2023-07-31T08:14:54;10.55;;;3.90;;
31760;SDS011;18335;51.486;7.562;2023-07-31T08:17:22;8.23;;;3.80;;
31760;SDS011;18335;51.486;7.562;2023-07-31T08:19:48;10.40;;;3.90;;
31760;SDS011;18335;51.486;7.562;2023-07-31T08:22:15;10.90;;;4.15;;
31760;SDS011;18335;51.486;7.562;2023-07-31T08:24:42;10.02;;;4.03;;
31760;SDS011;18335;51.486;7.562;2023-07-31T08:27:08;11.73;;;3.80;;
31760;SDS011;18335;51.486;7.562;2023-07-31T08:29:35;13.27;;;4.38;;
31760;SDS011;18335;51.486;7.562;2023-07-31T08:32:02;13.38;;;5.43;;
31760;SDS011;18335;51.486;7.562;2023-07-31T08:34:30;10.57;;;4.40;;
31760;SDS011;18335;51.486;7.562;2023-07-31T08:36:57;12.80;;;3.50;;
31760;SDS011;18335;51.486;7.562;2023-07-31T08:39:24;11.35;;;3.75;;
31760;SDS011;18335;51.486;7.562;2023-07-31T08:41:50;8.50;;;3.67;;
31760;SDS011;18335;51.486;7.562;2023-07-31T08:44:17;10.95;;;3.83;;
31760;SDS011;18335;51.486;7.562;2023-07-31T08:46:44;10.43;;;3.60;;
31760;SDS011;18335;51.486;7.562;2023-07-31T08:49:13;10.60;;;3.80;;
31760;SDS011;18335;51.486;7.562;2023-07-31T08:51:42;12.15;;;3.92;;
31760;SDS011;18335;51.486;7.562;2023-07-31T08:54:12;8.98;;;3.47;;
31760;SDS011;18335;51.486;7.562;2023-07-31T08:56:39;9.35;;;3.78;;
31760;SDS011;18335;51.486;7.562;2023-07-31T08:59:06;9.57;;;3.47;;
31760;SDS011;18335;51.486;7.562;2023-07-31T09:01:35;9.23;;;3.25;;
31760;SDS011;18335;51.486;7.562;2023-07-31T09:04:09;8.35;;;2.80;;
31760;SDS011;18335;51.486;7.562;2023-07-31T09:06:38;6.38;;;2.80;;
31760;SDS011;18335;51.486;7.562;2023-07-31T09:09:07;6.22;;;2.20;;
31760;SDS011;18335;51.486;7.562;2023-07-31T09:11:35;7.35;;;2.30;;
31760;SDS011;18335;51.486;7.562;2023-07-31T09:14:02;7.28;;;2.80;;
31760;SDS011;18335;51.486;7.562;2023-07-31T09:16:33;5.97;;;2.65;;
31760;SDS011;18335;51.486;7.562;2023-07-31T09:19:00;6.90;;;3.03;;
31760;SDS011;18335;51.486;7.562;2023-07-31T09:21:28;6.13;;;2.28;;
31760;SDS011;18335;51.486;7.562;2023-07-31T09:23:55;4.57;;;1.92;;
31760;SDS011;18335;51.486;7.562;2023-07-31T09:26:30;5.13;;;2.13;;
31760;SDS011;18335;51.486;7.562;2023-07-31T09:28:57;8.43;;;2.30;;
31760;SDS011;18335;51.486;7.562;2023-07-31T09:31:34;5.68;;;2.50;;
31760;SDS011;18335;51.486;7.562;2023-07-31T09:34:05;7.38;;;3.30;;
31760;SDS011;18335;51.486;7.562;2023-07-31T09:36:31;7.57;;;2.53;;
31760;SDS011;18335;51.486;7.562;2023-07-31T09:39:01;8.55;;;2.72;;
31760;SDS011;18335;51.486;7.562;2023-07-31T09:41:30;7.57;;;2.80;;
31760;SDS011;18335;51.486;7.562;2023-07-31T09:43:57;8.18;;;3.05;;
31760;SDS011;18335;51.486;7.562;2023-07-31T09:46:26;9.10;;;3.25;;
31760;SDS011;18335;51.486;7.562;2023-07-31T09:48:59;6.20;;;2.67;;
31760;SDS011;18335;51.486;7.562;2023-07-31T09:51:30;8.05;;;2.72;;
31760;SDS011;18335;51.486;7.562;2023-07-31T09:53:57;7.40;;;2.83;;
31760;SDS011;18335;51.486;7.562;2023-07-31T09:56:24;9.02;;;3.45;;
31760;SDS011;18335;51.486;7.562;2023-07-31T09:58:53;5.75;;;2.80;;
31760;SDS011;18335;51.486;7.562;2023-07-31T10:01:21;7.95;;;2.90;;
31760;SDS011;18335;51.486;7.562;2023-07-31T10:03:48;5.40;;;2.40;;
31760;SDS011;18335;51.486;7.562;2023-07-31T10:06:15;7.03;;;2.67;;
31760;SDS011;18335;51.486;7.562;2023-07-31T10:08:44;6.72;;;2.70;;
31760;SDS011;18335;51.486;7.562;2023-07-31T10:11:13;6.47;;;2.35;;
31760;SDS011;18335;51.486;7.562;2023-07-31T10:13:42;5.82;;;2.28;;
31760;SDS011;18335;51.486;7.562;2023-07-31T10:16:11;6.93;;;2.83;;
31760;SDS011;18335;51.486;7.562;2023-07-31T10:18:38;5.20;;;2.25;;
31760;SDS011;18335;51.486;7.562;2023-07-31T10:21:06;4.63;;;2.33;;
31760;SDS011;18335;51.486;7.562;2023-07-31T10:23:33;5.43;;;1.92;;
31760;SDS011;18335;51.486;7.562;2023-07-31T10:26:00;4.03;;;2.35;;
31760;SDS011;18335;51.486;7.562;2023-07-31T10:28:29;6.45;;;2.28;;
31760;SDS011;18335;51.486;7.562;2023-07-31T10:30:59;5.43;;;2.40;;
31760;SDS011;18335;51.486;7.562;2023-07-31T10:33:29;5.45;;;2.47;;
31760;SDS011;18335;51.486;7.562;2023-07-31T10:36:11;5.00;;;2.10;;
31760;SDS011;18335;51.486;7.562;2023-07-31T10:38:38;4.18;;;1.73;;
31760;SDS011;18335;51.486;7.562;2023-07-31T10:41:07;3.40;;;2.10;;
31760;SDS011;18335;51.486;7.562;2023-07-31T10:43:35;4.85;;;1.88;;
31760;SDS011;18335;51.486;7.562;2023-07-31T10:46:06;5.05;;;2.08;;
31760;SDS011;18335;51.486;7.562;2023-07-31T10:48:34;3.40;;;1.42;;
31760;SDS011;18335;51.486;7.562;2023-07-31T10:51:02;4.15;;;1.73;;
31760;SDS011;18335;51.486;7.562;2023-07-31T10:53:34;5.32;;;1.40;;
31760;SDS011;18335;51.486;7.562;2023-07-31T10:56:01;3.40;;;1.30;;
31760;SDS011;18335;51.486;7.562;2023-07-31T10:58:28;4.85;;;1.40;;
31760;SDS011;18335;51.486;7.562;2023-07-31T11:00:57;3.75;;;1.13;;
31760;SDS011;18335;51.486;7.562;2023-07-31T11:03:25;2.58;;;1.13;;
31760;SDS011;18335;51.486;7.562;2023-07-31T11:05:59;4.70;;;1.88;;
31760;SDS011;18335;51.486;7.562;2023-07-31T11:08:28;2.58;;;1.20;;
31760;SDS011;18335;51.486;7.562;2023-07-31T11:11:05;3.05;;;1.27;;
31760;SDS011;18335;51.486;7.562;2023-07-31T11:13:39;3.25;;;1.40;;
31760;SDS011;18335;51.486;7.562;2023-07-31T11:16:07;4.38;;;1.60;;
31760;SDS011;18335;51.486;7.562;2023-07-31T11:18:34;4.88;;;1.95;;
31760;SDS011;18335;51.486;7.562;2023-07-31T11:21:02;3.58;;;1.42;;
31760;SDS011;18335;51.486;7.562;2023-07-31T11:23:30;4.22;;;1.65;;
31760;SDS011;18335;51.486;7.562;2023-07-31T11:25:59;5.20;;;1.73;;
31760;SDS011;18335;51.486;7.562;2023-07-31T11:28:30;6.03;;;1.58;;
31760;SDS011;18335;51.486;7.562;2023-07-31T11:30:59;4.80;;;1.60;;
31760;SDS011;18335;51.486;7.562;2023-07-31T11:33:26;2.72;;;1.35;;
31760;SDS011;18335;51.486;7.562;2023-07-31T11:35:52;5.03;;;1.90;;
31760;SDS011;18335;51.486;7.562;2023-07-31T11:38:24;4.20;;;1.88;;
31760;SDS011;18335;51.486;7.562;2023-07-31T11:40:51;5.40;;;2.10;;
31760;SDS011;18335;51.486;7.562;2023-07-31T11:43:19;4.28;;;2.10;;
31760;SDS011;18335;51.486;7.562;2023-07-31T11:45:47;4.95;;;2.13;;
31760;SDS011;18335;51.486;7.562;2023-07-31T11:48:21;6.03;;;2.50;;
31760;SDS011;18335;51.486;7.562;2023-07-31T11:50:50;5.38;;;2.20;;
31760;SDS011;18335;51.486;7.562;2023-07-31T11:53:19;8.68;;;2.38;;
31760;SDS011;18335;51.486;7.562;2023-07-31T11:55:50;5.75;;;2.15;;
31760;SDS011;18335;51.486;7.562;2023-07-31T11:58:17;6.95;;;2.90;;
31760;SDS011;18335;51.486;7.562;2023-07-31T12:00:45;6.45;;;2.42;;
31760;SDS011;18335;51.486;7.562;2023-07-31T12:03:13;5.95;;;2.95;;
31760;SDS011;18335;51.486;7.562;2023-07-31T12:05:40;5.72;;;2.90;;
31760;SDS011;18335;51.486;7.562;2023-07-31T12:08:10;8.30;;;2.83;;
31760;SDS011;18335;51.486;7.562;2023-07-31T12:10:38;6.20;;;3.08;;
31760;SDS011;18335;51.486;7.562;2023-07-31T12:13:07;7.72;;;3.28;;
31760;SDS011;18335;51.486;7.562;2023-07-31T12:15:39;6.60;;;3.63;;
31760;SDS011;18335;51.486;7.562;2023-07-31T12:18:08;8.35;;;3.40;;
31760;SDS011;18335;51.486;7.562;2023-07-31T12:20:40;8.18;;;3.55;;
31760;SDS011;18335;51.486;7.562;2023-07-31T12:23:12;8.57;;;3.10;;
31760;SDS011;18335;51.486;7.562;2023-07-31T12:25:39;9.55;;;2.95;;
31760;SDS011;18335;51.486;7.562;2023-07-31T12:28:07;13.75;;;3.60;;
31760;SDS011;18335;51.486;7.562;2023-07-31T12:30:37;8.27;;;3.00;;
31760;SDS011;18335;51.486;7.562;2023-07-31T12:33:05;6.60;;;2.38;;
31760;SDS011;18335;51.486;7.562;2023-07-31T12:35:38;9.43;;;2.67;;
31760;SDS011;18335;51.486;7.562;2023-07-31T12:38:07;6.40;;;2.58;;
31760;SDS011;18335;51.486;7.562;2023-07-31T12:40:36;8.30;;;2.35;;
31760;SDS011;18335;51.486;7.562;2023-07-31T12:43:03;6.85;;;2.65;;
31760;SDS011;18335;51.486;7.562;2023-07-31T12:45:32;5.05;;;2.10;;
31760;SDS011;18335;51.486;7.562;2023-07-31T12:47:59;5.15;;;2.00;;
31760;SDS011;18335;51.486;7.562;2023-07-31T12:50:26;6.30;;;2.95;;
31760;SDS011;18335;51.486;7.562;2023-07-31T12:52:53;8.77;;;2.80;;
31760;SDS011;18335;51.486;7.562;2023-07-31T12:55:20;6.35;;;2.17;;
31760;SDS011;18335;51.486;7.562;2023-07-31T12:57:48;8.05;;;3.10;;
31760;SDS011;18335;51.486;7.562;2023-07-31T13:00:14;6.35;;;2.35;;
31760;SDS011;18335;51.486;7.562;2023-07-31T13:02:43;5.97;;;2.50;;
31760;SDS011;18335;51.486;7.562;2023-07-31T13:05:10;4.38;;;1.92;;
31760;SDS011;18335;51.486;7.562;2023-07-31T13:07:38;5.30;;;2.33;;
31760;SDS011;18335;51.486;7.562;2023-07-31T13:10:04;4.88;;;1.90;;
31760;SDS011;18335;51.486;7.562;2023-07-31T13:12:32;4.65;;;2.17;;
31760;SDS011;18335;51.486;7.562;2023-07-31T13:14:58;8.00;;;2.17;;
31760;SDS011;18335;51.486;7.562;2023-07-31T13:17:25;6.18;;;2.28;;
31760;SDS011;18335;51.486;7.562;2023-07-31T13:19:53;5.60;;;1.88;;
31760;SDS011;18335;51.486;7.562;2023-07-31T13:22:20;6.45;;;2.03;;
31760;SDS011;18335;51.486;7.562;2023-07-31T13:24:46;7.03;;;2.05;;
31760;SDS011;18335;51.486;7.562;2023-07-31T13:27:14;3.63;;;1.33;;
31760;SDS011;18335;51.486;7.562;2023-07-31T13:29:42;4.25;;;1.73;;
31760;SDS011;18335;51.486;7.562;2023-07-31T13:32:09;6.15;;;1.80;;
31760;SDS011;18335;51.486;7.562;2023-07-31T13:34:36;5.07;;;2.13;;
31760;SDS011;18335;51.486;7.562;2023-07-31T13:37:04;5.07;;;2.03;;
31760;SDS011;18335;51.486;7.562;2023-07-31T13:39:31;3.85;;;1.80;;
31760;SDS011;18335;51.486;7.562;2023-07-31T13:41:58;3.15;;;1.30;;
31760;SDS011;18335;51.486;7.562;2023-07-31T13:44:25;3.83;;;1.55;;
31760;SDS011;18335;51.486;7.562;2023-07-31T13:46:52;4.72;;;1.85;;
31760;SDS011;18335;51.486;7.562;2023-07-31T13:49:18;6.40;;;2.10;;
31760;SDS011;18335;51.486;7.562;2023-07-31T13:51:45;4.40;;;1.67;;
31760;SDS011;18335;51.486;7.562;2023-07-31T13:54:13;5.13;;;1.70;;
31760;SDS011;18335;51.486;7.562;2023-07-31T13:56:41;3.88;;;1.83;;
31760;SDS011;18335;51.486;7.562;2023-07-31T13:59:07;5.10;;;1.50;;
31760;SDS011;18335;51.486;7.562;2023-07-31T14:01:34;3.97;;;1.73;;
31760;SDS011;18335;51.486;7.562;2023-07-31T14:04:01;3.75;;;1.90;;
31760;SDS011;18335;51.486;7.562;2023-07-31T14:06:27;5.22;;;1.98;;
31760;SDS011;18335;51.486;7.562;2023-07-31T14:08:54;5.60;;;2.33;;
31760;SDS011;18335;51.486;7.562;2023-07-31T14:11:22;4.35;;;1.60;;
31760;SDS011;18335;51.486;7.562;2023-07-31T14:13:49;4.10;;;1.70;;
31760;SDS011;18335;51.486;7.562;2023-07-31T14:16:16;6.00;;;1.63;;
31760;SDS011;18335;51.486;7.562;2023-07-31T14:18:43;4.40;;;1.98;;
31760;SDS011;18335;51.486;7.562;2023-07-31T14:21:10;6.07;;;1.92;;
31760;SDS011;18335;51.486;7.562;2023-07-31T14:23:37;5.38;;;1.98;;
31760;SDS011;18335;51.486;7.562;2023-07-31T14:26:04;4.85;;;1.85;;
31760;SDS011;18335;51.486;7.562;2023-07-31T14:28:32;7.80;;;2.10;;
31760;SDS011;18335;51.486;7.562;2023-07-31T14:30:59;5.82;;;2.20;;
31760;SDS011;18335;51.486;7.562;2023-07-31T14:33:26;5.38;;;1.95;;
31760;SDS011;18335;51.486;7.562;2023-07-31T14:35:52;6.28;;;2.47;;
31760;SDS011;18335;51.486;7.562;2023-07-31T14:38:19;6.13;;;3.22;;
31760;SDS011;18335;51.486;7.562;2023-07-31T14:40:46;11.20;;;2.92;;
31760;SDS011;18335;51.486;7.562;2023-07-31T14:43:13;5.68;;;2.22;;